sensor_id;sensor_type;location;lat;lon;timestamp;temperature;humidity
9103;DHT22;4587;51.434;6.788;2022-11-18T00:00:56;10.30;99.90
9103;DHT22;4587;51.434;6.788;2022-11-18T00:03:21;10.20;99.90
9103;DHT22;4587;51.434;6.788;2022-11-18T00:05:54;10.20;99.90
9103;DHT22;4587;51.434;6.788;2022-11-18T00:08:21;10.30;99.90
9103;DHT22;4587;51.434;6.788;2022-11-18T00:10:47;10.20;99.90
9103;DHT22;4587;51.434;6.788;2022-11-18T00:13:13;10.20;99.90
9103;DHT22;4587;51.434;6.788;2022-11-18T00:16:01;10.20;99.90
9103;DHT22;4587;51.434;6.788;2022-11-18T00:18:27;10.20;99.90
9103;DHT22;4587;51.434;6.788;2022-11-18T00:20:53;10.30;99.90
9103;DHT22;4587;51.434;6.788;2022-11-18T00:23:18;10.30;99.90
9103;DHT22;4587;51.434;6.788;2022-11-18T00:25:44;10.30;99.90
9103;DHT22;4587;51.434;6.788;2022-11-18T00:28:09;10.40;99.90
9103;DHT22;4587;51.434;6.788;2022-11-18T00:30:35;10.40;99.90
9103;DHT22;4587;51.434;6.788;2022-11-18T00:33:00;10.40;99.90
9103;DHT22;4587;51.434;6.788;2022-11-18T00:35:26;10.40;99.90
9103;DHT22;4587;51.434;6.788;2022-11-18T00:37:51;10.30;99.90
9103;DHT22;4587;51.434;6.788;2022-11-18T00:40:17;10.30;99.90
9103;DHT22;4587;51.434;6.788;2022-11-18T00:42:43;10.40;99.90
9103;DHT22;4587;51.434;6.788;2022-11-18T00:45:22;10.30;99.90
9103;DHT22;4587;51.434;6.788;2022-11-18T00:47:47;10.30;99.90
9103;DHT22;4587;51.434;6.788;2022-11-18T00:50:13;10.40;99.90
9103;DHT22;4587;51.434;6.788;2022-11-18T00:52:39;10.40;99.90
9103;DHT22;4587;51.434;6.788;2022-11-18T00:55:05;10.30;99.90
9103;DHT22;4587;51.434;6.788;2022-11-18T00:57:31;10.30;99.90
9103;DHT22;4587;51.434;6.788;2022-11-18T00:59:56;10.30;99.90
9103;DHT22;4587;51.434;6.788;2022-11-18T01:02:22;10.30;99.90
9103;DHT22;4587;51.434;6.788;2022-11-18T01:04:47;10.30;99.90
9103;DHT22;4587;51.434;6.788;2022-11-18T01:07:13;10.20;99.90
9103;DHT22;4587;51.434;6.788;2022-11-18T01:09:38;10.20;99.90
9103;DHT22;4587;51.434;6.788;2022-11-18T01:12:04;10.10;99.90
9103;DHT22;4587;51.434;6.788;2022-11-18T01:14:48;10.10;99.90
9103;DHT22;4587;51.434;6.788;2022-11-18T01:17:14;10.00;99.90
9103;DHT22;4587;51.434;6.788;2022-11-18T01:19:39;10.10;99.90
9103;DHT22;4587;51.434;6.788;2022-11-18T01:22:05;10.20;99.90
9103;DHT22;4587;51.434;6.788;2022-11-18T01:24:32;10.20;99.90
9103;DHT22;4587;51.434;6.788;2022-11-18T01:26:58;10.30;99.90
9103;DHT22;4587;51.434;6.788;2022-11-18T01:29:24;10.30;99.90
9103;DHT22;4587;51.434;6.788;2022-11-18T01:31:50;10.40;99.90
9103;DHT22;4587;51.434;6.788;2022-11-18T01:34:15;10.30;99.90
9103;DHT22;4587;51.434;6.788;2022-11-18T01:36:41;10.30;99.90
9103;DHT22;4587;51.434;6.788;2022-11-18T01:39:06;10.30;99.90
9103;DHT22;4587;51.434;6.788;2022-11-18T01:41:32;10.30;99.90
9103;DHT22;4587;51.434;6.788;2022-11-18T01:44:00;10.20;99.90
9103;DHT22;4587;51.434;6.788;2022-11-18T01:46:29;10.20;99.90
9103;DHT22;4587;51.434;6.788;2022-11-18T01:49:00;10.20;99.90
9103;DHT22;4587;51.434;6.788;2022-11-18T01:51:33;10.30;99.90
9103;DHT22;4587;51.434;6.788;2022-11-18T01:54:06;10.20;99.90
9103;DHT22;4587;51.434;6.788;2022-11-18T01:56:40;10.30;99.90
9103;DHT22;4587;51.434;6.788;2022-11-18T01:59:11;10.30;99.90
9103;DHT22;4587;51.434;6.788;2022-11-18T02:01:37;10.20;99.90
9103;DHT22;4587;51.434;6.788;2022-11-18T02:04:02;10.20;99.90
9103;DHT22;4587;51.434;6.788;2022-11-18T02:06:28;10.20;99.90
9103;DHT22;4587;51.434;6.788;2022-11-18T02:08:53;10.20;99.90
9103;DHT22;4587;51.434;6.788;2022-11-18T02:11:20;10.20;99.90
9103;DHT22;4587;51.434;6.788;2022-11-18T02:14:07;10.20;99.90
9103;DHT22;4587;51.434;6.788;2022-11-18T02:17:08;10.20;99.90
9103;DHT22;4587;51.434;6.788;2022-11-18T02:31:19;10.20;99.90
9103;DHT22;4587;51.434;6.788;2022-11-18T02:36:35;10.30;99.90
9103;DHT22;4587;51.434;6.788;2022-11-18T02:39:12;10.20;99.90
9103;DHT22;4587;51.434;6.788;2022-11-18T02:41:41;10.20;99.90
9103;DHT22;4587;51.434;6.788;2022-11-18T02:44:11;10.20;99.90
9103;DHT22;4587;51.434;6.788;2022-11-18T02:46:38;10.20;99.90
9103;DHT22;4587;51.434;6.788;2022-11-18T02:49:24;10.20;99.90
9103;DHT22;4587;51.434;6.788;2022-11-18T02:51:53;10.10;99.90
9103;DHT22;4587;51.434;6.788;2022-11-18T02:54:20;10.10;99.90
9103;DHT22;4587;51.434;6.788;2022-11-18T02:56:48;10.10;99.90
9103;DHT22;4587;51.434;6.788;2022-11-18T02:59:19;10.20;99.90
9103;DHT22;4587;51.434;6.788;2022-11-18T03:01:46;10.20;99.90
9103;DHT22;4587;51.434;6.788;2022-11-18T03:04:13;10.20;99.90
9103;DHT22;4587;51.434;6.788;2022-11-18T03:06:41;10.20;99.90
9103;DHT22;4587;51.434;6.788;2022-11-18T03:09:19;10.10;99.90
9103;DHT22;4587;51.434;6.788;2022-11-18T03:15:00;10.10;99.90
9103;DHT22;4587;51.434;6.788;2022-11-18T03:20:10;10.10;99.90
9103;DHT22;4587;51.434;6.788;2022-11-18T03:22:42;10.00;99.90
9103;DHT22;4587;51.434;6.788;2022-11-18T03:25:18;10.00;99.90
9103;DHT22;4587;51.434;6.788;2022-11-18T03:28:07;10.00;99.90
9103;DHT22;4587;51.434;6.788;2022-11-18T03:30:38;10.00;99.90
9103;DHT22;4587;51.434;6.788;2022-11-18T03:33:13;10.00;99.90
9103;DHT22;4587;51.434;6.788;2022-11-18T03:35:44;10.10;99.90
9103;DHT22;4587;51.434;6.788;2022-11-18T03:38:15;10.20;99.90
9103;DHT22;4587;51.434;6.788;2022-11-18T03:40:45;10.20;99.90
9103;DHT22;4587;51.434;6.788;2022-11-18T03:43:15;10.40;99.90
9103;DHT22;4587;51.434;6.788;2022-11-18T03:45:47;10.40;99.90
9103;DHT22;4587;51.434;6.788;2022-11-18T03:48:19;10.40;99.90
9103;DHT22;4587;51.434;6.788;2022-11-18T03:50:58;10.40;99.90
9103;DHT22;4587;51.434;6.788;2022-11-18T03:53:27;10.50;99.90
9103;DHT22;4587;51.434;6.788;2022-11-18T03:56:08;10.50;99.90
9103;DHT22;4587;51.434;6.788;2022-11-18T03:58:39;10.50;99.90
9103;DHT22;4587;51.434;6.788;2022-11-18T04:01:14;10.50;99.90
9103;DHT22;4587;51.434;6.788;2022-11-18T04:03:41;10.40;99.90
9103;DHT22;4587;51.434;6.788;2022-11-18T04:06:27;10.30;99.90
9103;DHT22;4587;51.434;6.788;2022-11-18T04:08:58;10.30;99.90
9103;DHT22;4587;51.434;6.788;2022-11-18T04:11:32;10.40;99.90
9103;DHT22;4587;51.434;6.788;2022-11-18T04:14:18;10.40;99.90
9103;DHT22;4587;51.434;6.788;2022-11-18T04:16:50;10.40;99.90
9103;DHT22;4587;51.434;6.788;2022-11-18T04:19:17;10.30;99.90
9103;DHT22;4587;51.434;6.788;2022-11-18T04:21:43;10.30;99.90
9103;DHT22;4587;51.434;6.788;2022-11-18T04:24:09;10.20;99.90
9103;DHT22;4587;51.434;6.788;2022-11-18T04:26:35;10.20;99.90
9103;DHT22;4587;51.434;6.788;2022-11-18T04:29:00;10.20;99.90
9103;DHT22;4587;51.434;6.788;2022-11-18T04:31:26;10.30;99.90
9103;DHT22;4587;51.434;6.788;2022-11-18T04:33:51;10.20;99.90
9103;DHT22;4587;51.434;6.788;2022-11-18T04:36:17;10.20;99.90
9103;DHT22;4587;51.434;6.788;2022-11-18T04:38:44;10.30;99.90
9103;DHT22;4587;51.434;6.788;2022-11-18T04:41:09;10.10;99.90
9103;DHT22;4587;51.434;6.788;2022-11-18T04:43:35;10.20;99.90
9103;DHT22;4587;51.434;6.788;2022-11-18T04:46:01;10.20;99.90
9103;DHT22;4587;51.434;6.788;2022-11-18T04:48:26;10.20;99.90
9103;DHT22;4587;51.434;6.788;2022-11-18T04:50:52;10.20;99.90
9103;DHT22;4587;51.434;6.788;2022-11-18T04:53:17;10.30;99.90
9103;DHT22;4587;51.434;6.788;2022-11-18T04:55:43;10.20;99.90
9103;DHT22;4587;51.434;6.788;2022-11-18T04:58:08;10.10;99.90
9103;DHT22;4587;51.434;6.788;2022-11-18T05:00:34;10.10;99.90
9103;DHT22;4587;51.434;6.788;2022-11-18T05:02:59;10.10;99.90
9103;DHT22;4587;51.434;6.788;2022-11-18T05:05:25;10.10;99.90
9103;DHT22;4587;51.434;6.788;2022-11-18T05:07:50;10.10;99.90
9103;DHT22;4587;51.434;6.788;2022-11-18T05:10:16;10.10;99.90
9103;DHT22;4587;51.434;6.788;2022-11-18T05:12:41;10.10;99.90
9103;DHT22;4587;51.434;6.788;2022-11-18T05:15:14;10.00;99.90
9103;DHT22;4587;51.434;6.788;2022-11-18T05:17:40;10.10;99.90
9103;DHT22;4587;51.434;6.788;2022-11-18T05:20:06;10.20;99.90
9103;DHT22;4587;51.434;6.788;2022-11-18T05:22:31;10.20;99.90
9103;DHT22;4587;51.434;6.788;2022-11-18T05:24:57;10.20;99.90
9103;DHT22;4587;51.434;6.788;2022-11-18T05:27:23;10.20;99.90
9103;DHT22;4587;51.434;6.788;2022-11-18T05:29:48;10.20;99.90
9103;DHT22;4587;51.434;6.788;2022-11-18T05:32:14;10.20;99.90
9103;DHT22;4587;51.434;6.788;2022-11-18T05:34:40;10.20;99.90
9103;DHT22;4587;51.434;6.788;2022-11-18T05:37:06;10.10;99.90
9103;DHT22;4587;51.434;6.788;2022-11-18T05:39:32;10.20;99.90
9103;DHT22;4587;51.434;6.788;2022-11-18T05:41:58;10.10;99.90
9103;DHT22;4587;51.434;6.788;2022-11-18T05:44:43;10.10;99.90
9103;DHT22;4587;51.434;6.788;2022-11-18T05:47:09;10.00;99.90
9103;DHT22;4587;51.434;6.788;2022-11-18T05:49:35;10.00;99.90
9103;DHT22;4587;51.434;6.788;2022-11-18T05:52:00;9.90;99.90
9103;DHT22;4587;51.434;6.788;2022-11-18T05:54:26;9.90;99.90
9103;DHT22;4587;51.434;6.788;2022-11-18T05:56:52;9.90;99.90
9103;DHT22;4587;51.434;6.788;2022-11-18T05:59:18;9.90;99.90
9103;DHT22;4587;51.434;6.788;2022-11-18T06:04:27;9.70;99.90
9103;DHT22;4587;51.434;6.788;2022-11-18T06:07:02;9.60;99.90
9103;DHT22;4587;51.434;6.788;2022-11-18T06:09:31;9.60;99.90
9103;DHT22;4587;51.434;6.788;2022-11-18T06:12:01;9.50;99.90
9103;DHT22;4587;51.434;6.788;2022-11-18T06:14:38;9.40;99.90
9103;DHT22;4587;51.434;6.788;2022-11-18T06:17:12;9.40;99.90
9103;DHT22;4587;51.434;6.788;2022-11-18T06:19:38;9.40;99.90
9103;DHT22;4587;51.434;6.788;2022-11-18T06:22:04;9.40;99.90
9103;DHT22;4587;51.434;6.788;2022-11-18T06:24:31;9.40;99.90
9103;DHT22;4587;51.434;6.788;2022-11-18T06:26:57;9.50;99.90
9103;DHT22;4587;51.434;6.788;2022-11-18T06:29:23;9.40;99.90
9103;DHT22;4587;51.434;6.788;2022-11-18T06:31:49;9.50;99.90
9103;DHT22;4587;51.434;6.788;2022-11-18T06:34:14;9.50;99.90
9103;DHT22;4587;51.434;6.788;2022-11-18T06:36:40;9.60;99.90
9103;DHT22;4587;51.434;6.788;2022-11-18T06:39:06;9.60;99.90
9103;DHT22;4587;51.434;6.788;2022-11-18T06:41:32;9.60;99.90
9103;DHT22;4587;51.434;6.788;2022-11-18T06:43:58;9.60;99.90
9103;DHT22;4587;51.434;6.788;2022-11-18T06:46:24;9.50;99.90
9103;DHT22;4587;51.434;6.788;2022-11-18T06:49:08;9.60;99.90
9103;DHT22;4587;51.434;6.788;2022-11-18T06:51:34;9.60;99.90
9103;DHT22;4587;51.434;6.788;2022-11-18T06:54:00;9.60;99.90
9103;DHT22;4587;51.434;6.788;2022-11-18T06:56:25;9.60;99.90
9103;DHT22;4587;51.434;6.788;2022-11-18T06:58:56;9.70;99.90
9103;DHT22;4587;51.434;6.788;2022-11-18T07:01:25;9.70;99.90
9103;DHT22;4587;51.434;6.788;2022-11-18T07:03:52;9.80;99.90
9103;DHT22;4587;51.434;6.788;2022-11-18T07:06:23;9.80;99.90
9103;DHT22;4587;51.434;6.788;2022-11-18T07:08:49;9.80;99.90
9103;DHT22;4587;51.434;6.788;2022-11-18T07:11:18;9.80;99.90
9103;DHT22;4587;51.434;6.788;2022-11-18T07:13:45;9.90;99.90
9103;DHT22;4587;51.434;6.788;2022-11-18T07:16:19;9.80;99.90
9103;DHT22;4587;51.434;6.788;2022-11-18T07:18:46;9.90;99.90
9103;DHT22;4587;51.434;6.788;2022-11-18T07:21:14;9.90;99.90
9103;DHT22;4587;51.434;6.788;2022-11-18T07:23:40;9.90;99.90
9103;DHT22;4587;51.434;6.788;2022-11-18T07:26:06;9.90;99.90
9103;DHT22;4587;51.434;6.788;2022-11-18T07:28:32;10.00;99.90
9103;DHT22;4587;51.434;6.788;2022-11-18T07:33:26;10.00;99.90
9103;DHT22;4587;51.434;6.788;2022-11-18T07:35:52;10.00;99.90
9103;DHT22;4587;51.434;6.788;2022-11-18T07:38:18;10.00;99.90
9103;DHT22;4587;51.434;6.788;2022-11-18T07:40:43;10.00;99.90
9103;DHT22;4587;51.434;6.788;2022-11-18T07:43:09;10.10;99.90
9103;DHT22;4587;51.434;6.788;2022-11-18T07:45:34;10.00;99.90
9103;DHT22;4587;51.434;6.788;2022-11-18T07:48:00;10.00;99.90
9103;DHT22;4587;51.434;6.788;2022-11-18T07:50:26;10.00;99.90
9103;DHT22;4587;51.434;6.788;2022-11-18T07:52:55;10.10;99.90
9103;DHT22;4587;51.434;6.788;2022-11-18T07:55:20;10.20;99.90
9103;DHT22;4587;51.434;6.788;2022-11-18T07:57:46;10.20;99.90
9103;DHT22;4587;51.434;6.788;2022-11-18T08:00:12;10.20;99.90
9103;DHT22;4587;51.434;6.788;2022-11-18T08:02:37;10.20;99.90
9103;DHT22;4587;51.434;6.788;2022-11-18T08:05:03;10.30;99.90
9103;DHT22;4587;51.434;6.788;2022-11-18T08:07:29;10.40;99.90
9103;DHT22;4587;51.434;6.788;2022-11-18T08:09:54;10.50;99.90
9103;DHT22;4587;51.434;6.788;2022-11-18T08:12:20;10.50;99.90
9103;DHT22;4587;51.434;6.788;2022-11-18T08:14:45;10.60;99.90
9103;DHT22;4587;51.434;6.788;2022-11-18T08:17:11;10.60;99.90
9103;DHT22;4587;51.434;6.788;2022-11-18T08:19:36;10.70;99.90
9103;DHT22;4587;51.434;6.788;2022-11-18T08:22:02;10.70;99.90
9103;DHT22;4587;51.434;6.788;2022-11-18T08:24:27;10.70;99.90
9103;DHT22;4587;51.434;6.788;2022-11-18T08:26:53;10.80;99.90
9103;DHT22;4587;51.434;6.788;2022-11-18T08:29:19;10.90;99.90
9103;DHT22;4587;51.434;6.788;2022-11-18T08:31:44;10.90;99.90
9103;DHT22;4587;51.434;6.788;2022-11-18T08:34:10;10.90;99.90
9103;DHT22;4587;51.434;6.788;2022-11-18T08:36:37;10.80;99.90
9103;DHT22;4587;51.434;6.788;2022-11-18T08:39:05;10.80;99.90
9103;DHT22;4587;51.434;6.788;2022-11-18T08:41:39;10.90;99.90
9103;DHT22;4587;51.434;6.788;2022-11-18T08:44:07;10.90;99.90
9103;DHT22;4587;51.434;6.788;2022-11-18T08:46:32;10.80;99.90
9103;DHT22;4587;51.434;6.788;2022-11-18T08:48:59;10.70;99.90
9103;DHT22;4587;51.434;6.788;2022-11-18T08:51:25;10.70;99.90
9103;DHT22;4587;51.434;6.788;2022-11-18T08:53:51;10.60;99.90
9103;DHT22;4587;51.434;6.788;2022-11-18T08:56:20;10.60;99.90
9103;DHT22;4587;51.434;6.788;2022-11-18T08:58:46;10.60;99.90
9103;DHT22;4587;51.434;6.788;2022-11-18T09:01:12;10.60;99.90
9103;DHT22;4587;51.434;6.788;2022-11-18T09:03:38;10.60;99.90
9103;DHT22;4587;51.434;6.788;2022-11-18T09:06:15;10.70;99.90
9103;DHT22;4587;51.434;6.788;2022-11-18T09:08:41;10.80;99.90
9103;DHT22;4587;51.434;6.788;2022-11-18T09:11:10;10.70;99.90
9103;DHT22;4587;51.434;6.788;2022-11-18T09:13:35;10.70;99.90
9103;DHT22;4587;51.434;6.788;2022-11-18T09:16:01;10.80;99.90
9103;DHT22;4587;51.434;6.788;2022-11-18T09:18:28;11.00;99.90
9103;DHT22;4587;51.434;6.788;2022-11-18T09:21:02;11.60;99.90
9103;DHT22;4587;51.434;6.788;2022-11-18T09:23:30;11.70;99.90
9103;DHT22;4587;51.434;6.788;2022-11-18T09:26:01;11.80;99.90
9103;DHT22;4587;51.434;6.788;2022-11-18T09:28:28;11.70;99.90
9103;DHT22;4587;51.434;6.788;2022-11-18T09:30:54;11.80;99.90
9103;DHT22;4587;51.434;6.788;2022-11-18T09:33:20;11.70;99.90
9103;DHT22;4587;51.434;6.788;2022-11-18T09:35:46;11.70;99.90
9103;DHT22;4587;51.434;6.788;2022-11-18T09:38:11;11.80;99.90
9103;DHT22;4587;51.434;6.788;2022-11-18T09:40:59;11.80;99.90
9103;DHT22;4587;51.434;6.788;2022-11-18T09:49:33;11.80;99.90
9103;DHT22;4587;51.434;6.788;2022-11-18T09:52:51;11.90;99.90
9103;DHT22;4587;51.434;6.788;2022-11-18T09:54:50;12.00;99.90
9103;DHT22;4587;51.434;6.788;2022-11-18T09:57:30;12.10;99.90
9103;DHT22;4587;51.434;6.788;2022-11-18T09:59:57;12.10;99.90
9103;DHT22;4587;51.434;6.788;2022-11-18T10:05:28;12.10;99.90
9103;DHT22;4587;51.434;6.788;2022-11-18T10:10:55;12.10;99.90
9103;DHT22;4587;51.434;6.788;2022-11-18T10:24:36;12.20;99.90
9103;DHT22;4587;51.434;6.788;2022-11-18T10:27:12;12.20;99.90
9103;DHT22;4587;51.434;6.788;2022-11-18T10:29:38;12.30;99.90
9103;DHT22;4587;51.434;6.788;2022-11-18T10:32:06;12.30;99.90
9103;DHT22;4587;51.434;6.788;2022-11-18T10:34:33;12.40;99.90
9103;DHT22;4587;51.434;6.788;2022-11-18T10:37:02;12.50;99.90
9103;DHT22;4587;51.434;6.788;2022-11-18T10:39:27;12.60;99.90
9103;DHT22;4587;51.434;6.788;2022-11-18T10:42:05;12.70;99.90
9103;DHT22;4587;51.434;6.788;2022-11-18T10:44:39;12.70;99.90
9103;DHT22;4587;51.434;6.788;2022-11-18T10:47:21;12.70;99.90
9103;DHT22;4587;51.434;6.788;2022-11-18T10:49:48;12.80;99.90
9103;DHT22;4587;51.434;6.788;2022-11-18T10:52:14;12.80;99.90
9103;DHT22;4587;51.434;6.788;2022-11-18T10:54:40;12.90;99.90
9103;DHT22;4587;51.434;6.788;2022-11-18T10:59:49;12.90;99.90
9103;DHT22;4587;51.434;6.788;2022-11-18T11:02:18;12.90;99.90
9103;DHT22;4587;51.434;6.788;2022-11-18T11:04:49;12.90;99.90
9103;DHT22;4587;51.434;6.788;2022-11-18T11:12:56;12.90;99.90
9103;DHT22;4587;51.434;6.788;2022-11-18T11:15:26;13.00;99.90
9103;DHT22;4587;51.434;6.788;2022-11-18T11:17:58;13.00;99.90
9103;DHT22;4587;51.434;6.788;2022-11-18T11:20:44;13.00;99.90
9103;DHT22;4587;51.434;6.788;2022-11-18T11:23:14;13.00;99.90
9103;DHT22;4587;51.434;6.788;2022-11-18T11:31:18;13.20;99.90
9103;DHT22;4587;51.434;6.788;2022-11-18T11:42:55;13.30;99.90
9103;DHT22;4587;51.434;6.788;2022-11-18T11:50:57;13.20;99.90
9103;DHT22;4587;51.434;6.788;2022-11-18T12:07:32;12.60;99.90
9103;DHT22;4587;51.434;6.788;2022-11-18T12:10:18;12.80;99.90
9103;DHT22;4587;51.434;6.788;2022-11-18T12:12:57;13.00;99.90
9103;DHT22;4587;51.434;6.788;2022-11-18T12:15:45;13.00;99.90
9103;DHT22;4587;51.434;6.788;2022-11-18T12:18:16;13.00;99.90
9103;DHT22;4587;51.434;6.788;2022-11-18T12:20:46;12.90;99.90
9103;DHT22;4587;51.434;6.788;2022-11-18T12:23:25;12.90;99.90
9103;DHT22;4587;51.434;6.788;2022-11-18T12:28:32;12.70;99.90
9103;DHT22;4587;51.434;6.788;2022-11-18T12:33:52;12.70;99.90
9103;DHT22;4587;51.434;6.788;2022-11-18T12:36:26;12.80;99.90
9103;DHT22;4587;51.434;6.788;2022-11-18T12:38:51;12.80;99.90
9103;DHT22;4587;51.434;6.788;2022-11-18T12:41:59;12.90;99.90
9103;DHT22;4587;51.434;6.788;2022-11-18T12:44:50;12.90;99.90
9103;DHT22;4587;51.434;6.788;2022-11-18T12:50:12;13.00;99.90
9103;DHT22;4587;51.434;6.788;2022-11-18T12:55:14;13.10;99.90
9103;DHT22;4587;51.434;6.788;2022-11-18T12:57:40;13.10;99.90
9103;DHT22;4587;51.434;6.788;2022-11-18T13:02:51;13.10;99.90
9103;DHT22;4587;51.434;6.788;2022-11-18T13:05:25;12.90;99.90
9103;DHT22;4587;51.434;6.788;2022-11-18T13:07:57;12.80;99.90
9103;DHT22;4587;51.434;6.788;2022-11-18T13:10:54;12.80;99.90
9103;DHT22;4587;51.434;6.788;2022-11-18T13:13:40;12.70;99.90
9103;DHT22;4587;51.434;6.788;2022-11-18T13:16:22;12.70;99.90
9103;DHT22;4587;51.434;6.788;2022-11-18T13:19:07;12.70;99.90
9103;DHT22;4587;51.434;6.788;2022-11-18T13:21:33;12.80;99.90
9103;DHT22;4587;51.434;6.788;2022-11-18T13:24:21;12.90;99.90
9103;DHT22;4587;51.434;6.788;2022-11-18T13:26:52;12.90;99.90
9103;DHT22;4587;51.434;6.788;2022-11-18T13:32:16;13.00;99.90
9103;DHT22;4587;51.434;6.788;2022-11-18T13:34:52;12.90;99.90
9103;DHT22;4587;51.434;6.788;2022-11-18T13:37:21;12.80;99.90
9103;DHT22;4587;51.434;6.788;2022-11-18T13:39:48;12.80;99.90
9103;DHT22;4587;51.434;6.788;2022-11-18T13:42:19;13.00;99.90
9103;DHT22;4587;51.434;6.788;2022-11-18T13:44:56;13.10;99.90
9103;DHT22;4587;51.434;6.788;2022-11-18T13:47:34;13.20;99.90
9103;DHT22;4587;51.434;6.788;2022-11-18T13:50:37;13.20;99.90
9103;DHT22;4587;51.434;6.788;2022-11-18T13:53:25;13.20;99.90
9103;DHT22;4587;51.434;6.788;2022-11-18T14:00:58;13.20;99.90
9103;DHT22;4587;51.434;6.788;2022-11-18T14:03:34;13.20;99.90
9103;DHT22;4587;51.434;6.788;2022-11-18T14:06:00;13.20;99.90
9103;DHT22;4587;51.434;6.788;2022-11-18T14:08:36;13.10;99.90
9103;DHT22;4587;51.434;6.788;2022-11-18T14:11:04;13.00;99.90
9103;DHT22;4587;51.434;6.788;2022-11-18T14:13:32;12.90;99.90
9103;DHT22;4587;51.434;6.788;2022-11-18T14:16:25;12.80;99.90
9103;DHT22;4587;51.434;6.788;2022-11-18T14:18:51;12.80;99.90
9103;DHT22;4587;51.434;6.788;2022-11-18T14:21:33;12.80;99.90
9103;DHT22;4587;51.434;6.788;2022-11-18T14:24:00;12.80;99.90
9103;DHT22;4587;51.434;6.788;2022-11-18T14:26:36;12.70;99.90
9103;DHT22;4587;51.434;6.788;2022-11-18T14:29:17;12.50;99.90
9103;DHT22;4587;51.434;6.788;2022-11-18T14:32:23;12.50;99.90
9103;DHT22;4587;51.434;6.788;2022-11-18T14:34:58;12.40;99.90
9103;DHT22;4587;51.434;6.788;2022-11-18T14:37:25;12.40;99.90
9103;DHT22;4587;51.434;6.788;2022-11-18T14:39:55;12.30;99.90
9103;DHT22;4587;51.434;6.788;2022-11-18T14:42:21;12.20;99.90
9103;DHT22;4587;51.434;6.788;2022-11-18T14:44:48;12.20;99.90
9103;DHT22;4587;51.434;6.788;2022-11-18T14:49:48;12.10;99.90
9103;DHT22;4587;51.434;6.788;2022-11-18T14:52:13;12.00;99.90
9103;DHT22;4587;51.434;6.788;2022-11-18T14:54:39;11.80;99.90
9103;DHT22;4587;51.434;6.788;2022-11-18T14:57:04;11.80;99.90
9103;DHT22;4587;51.434;6.788;2022-11-18T14:59:30;11.80;99.90
9103;DHT22;4587;51.434;6.788;2022-11-18T15:01:56;11.70;99.90
9103;DHT22;4587;51.434;6.788;2022-11-18T15:04:23;11.60;99.90
9103;DHT22;4587;51.434;6.788;2022-11-18T15:06:49;11.60;99.90
9103;DHT22;4587;51.434;6.788;2022-11-18T15:09:15;11.50;99.90
9103;DHT22;4587;51.434;6.788;2022-11-18T15:11:40;11.30;99.90
9103;DHT22;4587;51.434;6.788;2022-11-18T15:14:06;11.10;99.90
9103;DHT22;4587;51.434;6.788;2022-11-18T15:16:32;11.10;99.90
9103;DHT22;4587;51.434;6.788;2022-11-18T15:19:00;11.00;99.90
9103;DHT22;4587;51.434;6.788;2022-11-18T15:21:26;10.90;99.90
9103;DHT22;4587;51.434;6.788;2022-11-18T15:23:52;10.80;99.90
9103;DHT22;4587;51.434;6.788;2022-11-18T15:26:27;10.70;99.90
9103;DHT22;4587;51.434;6.788;2022-11-18T15:28:54;10.60;99.90
9103;DHT22;4587;51.434;6.788;2022-11-18T15:31:21;10.60;99.90
9103;DHT22;4587;51.434;6.788;2022-11-18T15:33:47;10.50;99.90
9103;DHT22;4587;51.434;6.788;2022-11-18T15:36:21;10.40;99.90
9103;DHT22;4587;51.434;6.788;2022-11-18T15:38:48;10.40;99.90
9103;DHT22;4587;51.434;6.788;2022-11-18T15:41:25;10.30;99.90
9103;DHT22;4587;51.434;6.788;2022-11-18T15:43:51;10.30;99.90
9103;DHT22;4587;51.434;6.788;2022-11-18T15:46:18;10.20;99.90
9103;DHT22;4587;51.434;6.788;2022-11-18T15:48:44;10.20;99.90
9103;DHT22;4587;51.434;6.788;2022-11-18T15:51:10;10.10;99.90
9103;DHT22;4587;51.434;6.788;2022-11-18T15:53:35;10.10;99.90
9103;DHT22;4587;51.434;6.788;2022-11-18T15:58:43;10.00;99.90
9103;DHT22;4587;51.434;6.788;2022-11-18T16:01:09;10.00;99.90
9103;DHT22;4587;51.434;6.788;2022-11-18T16:03:35;9.90;99.90
9103;DHT22;4587;51.434;6.788;2022-11-18T16:06:01;9.80;99.90
9103;DHT22;4587;51.434;6.788;2022-11-18T16:08:28;9.90;99.90
9103;DHT22;4587;51.434;6.788;2022-11-18T16:10:55;9.80;99.90
9103;DHT22;4587;51.434;6.788;2022-11-18T16:13:39;9.80;99.90
9103;DHT22;4587;51.434;6.788;2022-11-18T16:16:05;9.80;99.90
9103;DHT22;4587;51.434;6.788;2022-11-18T16:18:31;9.70;99.90
9103;DHT22;4587;51.434;6.788;2022-11-18T16:20:58;9.70;99.90
9103;DHT22;4587;51.434;6.788;2022-11-18T16:23:24;9.60;99.90
9103;DHT22;4587;51.434;6.788;2022-11-18T16:25:49;9.50;99.90
9103;DHT22;4587;51.434;6.788;2022-11-18T16:28:15;9.50;99.90
9103;DHT22;4587;51.434;6.788;2022-11-18T16:30:49;9.40;99.90
9103;DHT22;4587;51.434;6.788;2022-11-18T16:33:33;9.30;99.90
9103;DHT22;4587;51.434;6.788;2022-11-18T16:35:59;9.30;99.90
9103;DHT22;4587;51.434;6.788;2022-11-18T16:38:25;9.20;99.90
9103;DHT22;4587;51.434;6.788;2022-11-18T16:40:55;9.20;99.90
9103;DHT22;4587;51.434;6.788;2022-11-18T16:43:21;9.20;99.90
9103;DHT22;4587;51.434;6.788;2022-11-18T16:45:53;9.20;99.90
9103;DHT22;4587;51.434;6.788;2022-11-18T16:48:20;9.20;99.90
9103;DHT22;4587;51.434;6.788;2022-11-18T16:51:17;9.10;99.90
9103;DHT22;4587;51.434;6.788;2022-11-18T16:53:47;9.10;99.90
9103;DHT22;4587;51.434;6.788;2022-11-18T16:56:13;9.20;99.90
9103;DHT22;4587;51.434;6.788;2022-11-18T16:58:38;9.10;99.90
9103;DHT22;4587;51.434;6.788;2022-11-18T17:01:11;9.10;99.90
9103;DHT22;4587;51.434;6.788;2022-11-18T17:03:37;9.00;99.90
9103;DHT22;4587;51.434;6.788;2022-11-18T17:06:02;9.00;99.90
9103;DHT22;4587;51.434;6.788;2022-11-18T17:08:31;9.00;99.90
9103;DHT22;4587;51.434;6.788;2022-11-18T17:10:57;9.10;99.90
9103;DHT22;4587;51.434;6.788;2022-11-18T17:13:27;9.10;99.90
9103;DHT22;4587;51.434;6.788;2022-11-18T17:15:53;9.10;99.90
9103;DHT22;4587;51.434;6.788;2022-11-18T17:18:18;9.10;99.90
9103;DHT22;4587;51.434;6.788;2022-11-18T17:20:44;9.10;99.90
9103;DHT22;4587;51.434;6.788;2022-11-18T17:23:13;9.10;99.90
9103;DHT22;4587;51.434;6.788;2022-11-18T17:25:38;9.10;99.90
9103;DHT22;4587;51.434;6.788;2022-11-18T17:28:04;9.10;99.90
9103;DHT22;4587;51.434;6.788;2022-11-18T17:30:30;9.10;99.90
9103;DHT22;4587;51.434;6.788;2022-11-18T17:32:55;9.10;99.90
9103;DHT22;4587;51.434;6.788;2022-11-18T17:35:21;9.20;99.90
9103;DHT22;4587;51.434;6.788;2022-11-18T17:37:46;9.30;99.90
9103;DHT22;4587;51.434;6.788;2022-11-18T17:40:12;9.30;99.90
9103;DHT22;4587;51.434;6.788;2022-11-18T17:42:38;9.30;99.90
9103;DHT22;4587;51.434;6.788;2022-11-18T17:45:04;9.40;99.90
9103;DHT22;4587;51.434;6.788;2022-11-18T17:47:30;9.40;99.90
9103;DHT22;4587;51.434;6.788;2022-11-18T17:49:56;9.50;99.90
9103;DHT22;4587;51.434;6.788;2022-11-18T17:52:21;9.50;99.90
9103;DHT22;4587;51.434;6.788;2022-11-18T17:54:47;9.60;99.90
9103;DHT22;4587;51.434;6.788;2022-11-18T17:57:12;9.60;99.90
9103;DHT22;4587;51.434;6.788;2022-11-18T17:59:38;9.60;99.90
9103;DHT22;4587;51.434;6.788;2022-11-18T18:02:04;9.60;99.90
9103;DHT22;4587;51.434;6.788;2022-11-18T18:04:30;9.60;99.90
9103;DHT22;4587;51.434;6.788;2022-11-18T18:06:56;9.60;99.90
9103;DHT22;4587;51.434;6.788;2022-11-18T18:09:22;9.60;99.90
9103;DHT22;4587;51.434;6.788;2022-11-18T18:11:48;9.70;99.90
9103;DHT22;4587;51.434;6.788;2022-11-18T18:14:13;9.60;99.90
9103;DHT22;4587;51.434;6.788;2022-11-18T18:16:47;9.60;99.90